Casa Blanca, California
Current Conditions -  °F | °C
As of 3:53 PM on Tuesday 25 Nov 2014 (Local Time) from KRAL Reporting Station
Clear Clear  
Wind Chill: 79°   Ceiling: Unl
Heat Index: 79°   Visibility: 10mi
Dew Point:   Wind: 0mph
Humidity: 5%   Direction: NA
Pressure: 30.27"   Gusts: NA
Location:  33.9119°N, 117.4°W
Report Text: KRAL 252353Z AUTO 00000KT 10SM CLR 26/M17 A3027 RMK AO2 SLP237 T02611167 10267 20211 56010
Loading
Personal Weather Stations






























Interactive Weather Map New forecast layout! Learn more

10-Day Weather Forecast

Advertisements
Track Severe Weather on mobile